My Meet Scores
Isabella Rossi, Gym Kinetics Gymnastics - MyMeetScores.com
Top100 | Top Teams | Upcoming Meets | Completed Meets | Latest | Add Scores | Help| Support | Bookmark and Share

Isabella Rossi, Gym Kinetics Gymnastics
Personal Bests
LevelVault BarsBeamFloorAA
39.5759.600 9.5759.27537.075
49.3009.750 9.4759.17537.350
59.4759.250 9.5009.40037.175
Meet Scores
Date Meet Team Session Level Division Vault Bars Beam Floor AA
2020-02-21 Kinetic Classic Gym Kinetics Gymnastics 03 5 Middle 9.150 31T 9.150 15T 9.450 12 8.875 36 36.625 18T
2020-01-31 Chow's Challenge Gym Kinetics Gymnastics B2 5 JR B 9.425 5 8.700 9 8.900 8 9.200 6T 36.225 8
2020-01-17 2020 Bravo Classic Gym Kinetics Gymnastics 4A 5 Jr 9.475 3T 9.250 3T 8.900 10 9.050 13T 36.675 5T
2020-01-10 Leenda's Island Adventure Gym Kinetics Gymnastics PG1 5 11 Year Ol 8.600 14T 9.225 2 8.900 5T 9.175 5 35.900 3
2019-12-20 Aspire Classic - 2019 Gym Kinetics Gymnastics 3A 5 Middle 9.150 9T 9.225 4 9.500 4T 8.475 18 36.350 9
2019-12-07 Home for the Holidays 2019 Gym Kinetics Gymnastics 5 5 Middle 9.150 4T 9.150 7T 9.475 1 9.400 2T 37.175 2
2019-03-22 Illinois Gymnastics State Championships Gym Kinetics Gymnastics 7 4 YT F 9.200 5T 9.750 2 9.375 11T 9.025 18 37.350 7
2019-03-01 NGCD Academy's 2019 Flip'r Invitational Gym Kinetics Gymnastics 10 4 Jr A 9.225 4 9.200 6 8.900 12 8.650 12T 35.975 10
2019-02-23 Kinetic Classic 2019 Gym Kinetics Gymnastics 1 4 Middle 8.900 5 9.500 7T 9.250 8T 8.850 16 36.500 7
2019-02-08 Midwest Twisters Harley Meet Womens Gym Kinetics Gymnastics T10 4 10a 8.850 6T 9.350 3 9.225 8 8.650 12T 36.075 7
2019-01-18 2019 Bravo Classic Gym Kinetics Gymnastics 3B 4 Jr 9.225 5 9.300 7 9.100 10T 8.425 20 36.050 6
2019-01-11 St Jude Benefit Meet Gym Kinetics Gymnastics 6A 4 Jr B 9.300 4T 9.100 2 9.475 2T 9.150 7 37.025 3
2018-12-14 2018 Aspire Classic Gym Kinetics Gymnastics 6A 4 Younger 9.200 3T 9.325 3T 9.350 8T 9.175 11T 37.050 5
2018-03-08 Level 4 & 5 State Gym Kinetics Gymnastics All 4 Ch F 8.900 12T 9.200 3T 9.175 17 8.700 25 35.975 12
2018-02-23 Kinetic Classic Gym Kinetics Gymnastics 7 4 Younger 8.300 43T 9.050 27T 9.050 46T 8.925 52T 35.325 37
2018-02-09 Arizona Sunrays Classic Rock Invitational Gym Kinetics Gymnastics W11 4 JrB 8.575 5T 9.000 3 8.750 5 9.100 2 35.425 3
2018-02-03 Midwest Games Gym Kinetics Gymnastics 6 4 Jr B 8.200 8 9.225 3 8.900 10 8.700 12T 35.025 8
2018-01-19 2018 Bravo Classic Gym Kinetics Gymnastics 10B 4 Child 7.950 9 9.200 1 9.250 3T 8.700 13T 35.100 4
2017-12-15 2017 Aspire Classic Gym Kinetics Gymnastics 7A 4 Younger 8.600 9 8.700 11T 9.150 8T 9.100 12T 35.550 8
2017-03-30 2017 Illinois Level 3 & 5 State Gym Kinetics Gymnastics All 3 Yh A 9.525 8 9.600 5 9.575 1 8.300 27 37.000 7
2017-02-24 Kinetic Classic Gym Kinetics Gymnastics 4,5,6,7 3 All Ages 9.075 55T 9.200 29T 9.225 23T 9.275 19T 36.775 20T
2017-02-09 Hal's Harley-Davidson Invite Gym Kinetics Gymnastics S11 3 8 yrs. 9.275 2 9.400 1T 9.150 1 9.250 3 37.075 1
2017-01-13 St Jude Benefit Meet Gym Kinetics Gymnastics 7A 3 Jr B 9.125 4 9.525 1T 8.925 3 9.100 5 36.675 3
2016-12-16 2016 Aspire Classic Gym Kinetics Gymnastics 12 3 Younger 9.575 1 9.275 3 8.375 6T 9.100 2T 36.325 1
Get your scores on
a t-shirt, pin, or hoodie

www.lazysuits.com